createdAt,value
2018-03-29T00:01:22.596Z,96.30
2018-03-29T00:03:50.054Z,96.50
2018-03-29T00:06:17.547Z,96.60
2018-03-29T00:08:45.814Z,96.80
2018-03-29T00:11:14.081Z,97.20
2018-03-29T00:13:41.561Z,97.10
2018-03-29T00:16:09.819Z,97.70
2018-03-29T00:18:37.301Z,97.70
2018-03-29T00:21:05.522Z,97.90
2018-03-29T00:23:33.006Z,97.90
2018-03-29T00:26:00.446Z,97.60
2018-03-29T00:28:27.921Z,97.70
2018-03-29T00:30:55.401Z,97.80
2018-03-29T00:33:23.663Z,98.30
2018-03-29T00:35:51.138Z,98.20
2018-03-29T00:38:19.365Z,98.10
2018-03-29T00:40:46.833Z,98.00
2018-03-29T00:43:14.283Z,98.20
2018-03-29T00:45:42.777Z,97.90
2018-03-29T00:48:10.237Z,98.00
2018-03-29T00:50:37.726Z,98.10
2018-03-29T00:53:17.773Z,97.80
2018-03-29T00:55:46.006Z,97.80
2018-03-29T00:58:13.458Z,97.70
2018-03-29T01:00:40.899Z,97.50
2018-03-29T01:03:08.409Z,97.80
2018-03-29T01:05:35.886Z,97.60
2018-03-29T01:08:04.125Z,97.10
2018-03-29T01:10:31.595Z,97.10
2018-03-29T01:12:59.102Z,96.80
2018-03-29T01:15:26.574Z,96.00
2018-03-29T01:17:54.068Z,95.90
2018-03-29T01:20:21.633Z,95.90
2018-03-29T01:22:49.131Z,95.80
2018-03-29T01:25:16.601Z,96.00
2018-03-29T01:27:44.045Z,95.30
2018-03-29T01:30:11.527Z,95.50
2018-03-29T01:32:38.982Z,95.30
2018-03-29T01:35:06.450Z,95.40
2018-03-29T01:37:33.899Z,95.20
2018-03-29T01:40:01.403Z,95.00
2018-03-29T01:42:28.845Z,94.70
2018-03-29T01:44:57.086Z,94.90
2018-03-29T01:47:24.590Z,94.90
2018-03-29T01:49:52.074Z,95.10
2018-03-29T01:52:19.525Z,95.10
2018-03-29T01:54:46.981Z,95.20
2018-03-29T01:57:15.223Z,95.30
2018-03-29T01:59:42.683Z,95.30
2018-03-29T02:02:10.162Z,95.30
2018-03-29T02:04:38.385Z,95.70
2018-03-29T02:07:05.881Z,95.70
2018-03-29T02:09:33.327Z,95.90
2018-03-29T02:12:00.791Z,95.90
2018-03-29T02:14:28.270Z,96.00
2018-03-29T02:16:56.537Z,96.50
2018-03-29T02:19:24.102Z,96.50
2018-03-29T02:21:51.589Z,96.60
2018-03-29T02:24:19.055Z,96.60
2018-03-29T02:26:46.509Z,96.60
2018-03-29T02:29:13.984Z,96.40
2018-03-29T02:31:41.429Z,96.50
2018-03-29T02:34:08.919Z,96.40
2018-03-29T02:36:36.379Z,96.30
2018-03-29T02:39:03.852Z,96.40
2018-03-29T02:41:31.300Z,96.40
2018-03-29T02:43:59.554Z,96.40
2018-03-29T02:46:27.074Z,96.40
2018-03-29T02:48:55.299Z,96.40
2018-03-29T02:51:22.758Z,96.40
2018-03-29T02:53:50.281Z,96.50
2018-03-29T02:56:17.769Z,96.50
2018-03-29T02:58:45.213Z,96.60
2018-03-29T03:01:12.684Z,96.80
2018-03-29T03:03:40.150Z,96.90
2018-03-29T03:06:07.639Z,96.70
2018-03-29T03:08:35.881Z,96.90
2018-03-29T03:11:03.351Z,96.80
2018-03-29T03:13:30.826Z,97.00
2018-03-29T03:15:59.064Z,97.10
2018-03-29T03:18:26.531Z,97.10
2018-03-29T03:20:53.981Z,97.10
2018-03-29T03:23:21.446Z,97.10
2018-03-29T03:25:48.900Z,97.10
2018-03-29T03:28:16.481Z,97.20
2018-03-29T03:30:43.936Z,97.20
2018-03-29T03:33:11.410Z,97.30
2018-03-29T03:35:39.636Z,97.10
2018-03-29T03:38:07.146Z,97.10
2018-03-29T03:40:35.358Z,96.80
2018-03-29T03:43:02.841Z,96.80
2018-03-29T03:45:30.329Z,96.60
2018-03-29T03:47:58.570Z,96.00
2018-03-29T03:50:26.058Z,96.00
2018-03-29T03:52:53.559Z,95.80
2018-03-29T03:55:21.032Z,95.40
2018-03-29T03:57:48.482Z,95.50
2018-03-29T04:00:15.963Z,95.50
2018-03-29T04:02:43.426Z,95.40
2018-03-29T04:05:10.927Z,95.30
2018-03-29T04:07:38.382Z,95.20
2018-03-29T04:10:05.835Z,95.10
2018-03-29T04:12:34.174Z,95.10
2018-03-29T04:15:01.623Z,95.10
2018-03-29T04:17:29.086Z,95.10
2018-03-29T04:19:56.549Z,95.20
2018-03-29T04:22:24.121Z,95.40
2018-03-29T04:24:51.700Z,95.60
2018-03-29T04:27:19.938Z,95.80
2018-03-29T04:29:47.398Z,95.80
2018-03-29T04:32:14.887Z,95.70
2018-03-29T04:34:43.139Z,95.90
2018-03-29T04:37:10.590Z,95.60
2018-03-29T04:39:38.055Z,95.60
2018-03-29T04:42:05.507Z,95.50
2018-03-29T04:44:33.069Z,95.60
2018-03-29T04:47:00.541Z,95.60
2018-03-29T04:49:28.007Z,95.60
2018-03-29T04:51:56.256Z,95.60
2018-03-29T04:54:23.763Z,95.60
2018-03-29T04:56:51.206Z,95.60
2018-03-29T04:59:19.471Z,95.70
2018-03-29T05:01:46.913Z,95.70
2018-03-29T05:04:14.376Z,95.80
2018-03-29T05:06:43.358Z,95.80
2018-03-29T05:09:10.838Z,95.80
2018-03-29T05:11:39.074Z,95.90
2018-03-29T05:14:06.536Z,95.60
2018-03-29T05:16:34.053Z,95.50
2018-03-29T05:19:01.518Z,95.20
2018-03-29T05:21:28.991Z,95.00
2018-03-29T05:23:56.437Z,94.90
2018-03-29T05:26:23.939Z,94.80
2018-03-29T05:28:51.502Z,94.60
2018-03-29T05:31:18.950Z,94.60
2018-03-29T05:33:46.434Z,94.60
2018-03-29T05:36:14.658Z,94.70
2018-03-29T05:38:42.137Z,94.70
2018-03-29T05:41:09.591Z,94.60
2018-03-29T05:43:37.089Z,94.60
2018-03-29T05:46:05.299Z,94.30
2018-03-29T05:48:32.783Z,94.30
2018-03-29T05:51:00.250Z,94.10
2018-03-29T05:53:27.726Z,93.90
2018-03-29T05:55:55.178Z,93.80
2018-03-29T05:58:22.675Z,93.50
2018-03-29T06:00:50.149Z,93.40
2018-03-29T06:03:17.645Z,93.50
2018-03-29T06:05:45.128Z,93.50
2018-03-29T06:08:13.380Z,93.80
2018-03-29T06:10:40.853Z,93.80
2018-03-29T06:13:08.308Z,93.90
2018-03-29T06:15:35.778Z,93.70
2018-03-29T06:18:04.020Z,93.40
2018-03-29T06:20:31.487Z,93.30
2018-03-29T06:22:58.942Z,93.60
2018-03-29T06:25:26.419Z,93.30
2018-03-29T06:27:54.687Z,92.10
2018-03-29T06:30:22.171Z,92.10
2018-03-29T06:32:49.634Z,91.70
2018-03-29T06:35:17.126Z,91.80
2018-03-29T06:37:44.593Z,91.80
2018-03-29T06:40:12.047Z,91.40
2018-03-29T06:42:39.556Z,91.50
2018-03-29T06:45:07.774Z,91.60
2018-03-29T06:47:35.258Z,91.60
2018-03-29T06:50:02.935Z,91.30
2018-03-29T06:52:31.200Z,90.50
2018-03-29T06:54:58.647Z,90.50
2018-03-29T06:57:26.137Z,90.40
2018-03-29T06:59:54.350Z,90.40
2018-03-29T07:02:21.822Z,90.40
2018-03-29T07:04:49.283Z,90.20
2018-03-29T07:07:16.762Z,88.30
2018-03-29T07:09:44.205Z,89.00
2018-03-29T07:12:12.446Z,87.90
2018-03-29T07:14:39.932Z,87.90
2018-03-29T07:17:07.402Z,86.50
2018-03-29T07:19:34.874Z,86.90
2018-03-29T07:22:02.341Z,86.30
2018-03-29T07:24:30.608Z,87.40
2018-03-29T07:26:58.830Z,87.70
2018-03-29T07:29:26.325Z,87.10
2018-03-29T07:31:53.784Z,85.20
2018-03-29T07:34:21.252Z,84.80
2018-03-29T07:36:48.712Z,84.80
2018-03-29T07:39:16.172Z,83.60
2018-03-29T07:41:43.646Z,84.30
2018-03-29T07:44:11.937Z,83.40
2018-03-29T07:46:39.407Z,83.40
2018-03-29T07:49:06.859Z,84.80
2018-03-29T07:51:34.342Z,80.50
2018-03-29T07:54:01.809Z,79.40
2018-03-29T07:56:29.322Z,78.00
2018-03-29T07:58:56.838Z,78.40
2018-03-29T08:01:24.294Z,78.30
2018-03-29T08:03:51.798Z,79.00
2018-03-29T08:06:20.011Z,81.00
2018-03-29T08:08:47.523Z,80.80
2018-03-29T08:11:15.737Z,78.90
2018-03-29T08:13:43.218Z,78.80
2018-03-29T08:16:10.682Z,77.30
2018-03-29T08:18:38.172Z,76.80
2018-03-29T08:21:05.640Z,76.90
2018-03-29T08:23:33.131Z,76.50
2018-03-29T08:26:00.598Z,76.80
2018-03-29T08:28:28.088Z,78.70
2018-03-29T08:30:56.334Z,78.70
2018-03-29T08:33:23.849Z,78.70
2018-03-29T08:35:51.333Z,77.30
2018-03-29T08:38:18.806Z,77.60
2018-03-29T08:40:46.302Z,77.80
2018-03-29T08:43:14.535Z,76.20
2018-03-29T08:45:42.038Z,76.20
2018-03-29T08:48:10.306Z,76.00
2018-03-29T08:50:37.800Z,75.90
2018-03-29T08:53:05.263Z,73.00
2018-03-29T08:55:32.753Z,71.70
2018-03-29T08:58:00.215Z,70.10
2018-03-29T09:00:27.714Z,68.40
2018-03-29T09:02:55.198Z,70.00
2018-03-29T09:05:22.658Z,70.80
2018-03-29T09:07:50.137Z,66.80
2018-03-29T09:10:17.626Z,67.20
2018-03-29T09:12:45.927Z,63.00
2018-03-29T09:15:13.394Z,62.90
2018-03-29T09:17:40.906Z,64.00
2018-03-29T09:20:08.383Z,62.70
2018-03-29T09:22:36.628Z,60.10
2018-03-29T09:25:04.104Z,60.00
2018-03-29T09:27:31.615Z,60.90
2018-03-29T09:29:59.094Z,59.20
2018-03-29T09:32:26.550Z,58.20
2018-03-29T09:34:54.031Z,59.30
2018-03-29T09:37:21.500Z,58.00
2018-03-29T09:39:49.044Z,56.90
2018-03-29T09:42:16.504Z,55.90
2018-03-29T09:44:44.000Z,55.60
2018-03-29T09:47:11.475Z,55.40
2018-03-29T09:49:38.988Z,57.00
2018-03-29T09:52:07.237Z,54.10
2018-03-29T09:54:35.368Z,53.90
2018-03-29T09:57:03.096Z,55.10
2018-03-29T09:59:30.609Z,53.00
2018-03-29T10:01:58.114Z,53.30
2018-03-29T10:04:25.587Z,54.40
2018-03-29T10:06:59.927Z,51.00
2018-03-29T10:09:27.397Z,50.90
2018-03-29T10:11:54.885Z,51.30
2018-03-29T10:14:22.366Z,51.90
2018-03-29T10:16:50.640Z,52.50
2018-03-29T10:19:18.094Z,52.50
2018-03-29T10:21:45.577Z,52.60
2018-03-29T10:24:13.823Z,49.80
2018-03-29T10:26:41.307Z,49.80
2018-03-29T10:29:09.544Z,51.30
2018-03-29T10:31:37.041Z,51.30
2018-03-29T10:34:05.274Z,49.50
2018-03-29T10:36:32.781Z,49.50
2018-03-29T10:39:01.037Z,50.30
2018-03-29T10:41:28.487Z,50.30
2018-03-29T10:43:55.981Z,50.40
2018-03-29T10:46:23.446Z,51.60
2018-03-29T10:48:52.057Z,49.70
2018-03-29T10:51:19.549Z,50.30
2018-03-29T10:53:47.816Z,47.80
2018-03-29T10:56:15.709Z,47.80
2018-03-29T10:58:43.966Z,47.70
2018-03-29T11:01:11.453Z,47.60
2018-03-29T11:03:39.703Z,44.30
2018-03-29T11:06:07.163Z,44.30
2018-03-29T11:08:34.644Z,45.80
2018-03-29T11:11:02.147Z,45.10
2018-03-29T11:13:29.647Z,46.90
2018-03-29T11:15:57.949Z,45.90
2018-03-29T11:18:25.394Z,45.80
2018-03-29T11:20:53.688Z,44.60
2018-03-29T11:23:21.140Z,44.60
2018-03-29T11:25:48.607Z,44.60
2018-03-29T11:28:16.087Z,43.80
2018-03-29T11:30:43.552Z,44.30
2018-03-29T11:33:11.054Z,45.40
2018-03-29T11:35:39.319Z,44.10
2018-03-29T11:38:07.589Z,43.80
2018-03-29T11:40:35.082Z,43.80
2018-03-29T11:43:03.691Z,40.20
2018-03-29T11:45:31.151Z,40.80
2018-03-29T11:47:58.638Z,40.20
2018-03-29T11:50:26.116Z,40.10
2018-03-29T11:52:54.381Z,39.50
2018-03-29T11:55:22.645Z,38.60
2018-03-29T11:57:50.146Z,38.50
2018-03-29T12:00:17.640Z,38.90
2018-03-29T12:02:45.095Z,40.40
2018-03-29T12:05:12.587Z,40.10
2018-03-29T12:07:40.068Z,40.60
2018-03-29T12:10:07.552Z,40.30
2018-03-29T12:12:35.022Z,39.40
2018-03-29T12:15:02.586Z,39.80
2018-03-29T12:17:30.070Z,38.10
2018-03-29T12:19:57.579Z,38.50
2018-03-29T12:22:25.446Z,38.50
2018-03-29T12:24:52.969Z,36.40
2018-03-29T12:27:20.450Z,36.00
2018-03-29T12:29:47.937Z,35.70
2018-03-29T12:32:16.658Z,33.10
2018-03-29T12:34:44.150Z,33.60
2018-03-29T12:37:11.653Z,34.30
2018-03-29T12:39:39.129Z,31.60
2018-03-29T12:42:06.655Z,28.90
2018-03-29T12:44:34.079Z,29.00
2018-03-29T12:47:02.351Z,31.10
2018-03-29T12:49:30.575Z,32.00
2018-03-29T12:51:58.096Z,32.00
2018-03-29T12:54:38.392Z,30.20
2018-03-29T12:57:17.886Z,30.20
2018-03-29T12:59:46.115Z,23.50
2018-03-29T13:02:13.595Z,23.40
2018-03-29T13:04:42.268Z,16.30
2018-03-29T13:07:09.736Z,16.60
2018-03-29T13:09:37.230Z,15.00
2018-03-29T13:12:04.725Z,13.30
2018-03-29T13:14:32.233Z,16.50
2018-03-29T13:17:00.526Z,21.60
2018-03-29T13:19:28.019Z,21.60
2018-03-29T13:21:55.462Z,25.10
2018-03-29T13:24:22.946Z,27.80
2018-03-29T13:26:50.426Z,29.70
2018-03-29T13:29:18.698Z,32.70
2018-03-29T13:31:46.189Z,32.60
2018-03-29T13:34:14.460Z,31.50
2018-03-29T13:36:42.693Z,27.20
2018-03-29T13:39:10.184Z,27.20
2018-03-29T13:41:38.797Z,28.50
2018-03-29T13:44:06.288Z,28.40
2018-03-29T13:46:33.759Z,28.60
2018-03-29T13:49:01.302Z,26.40
2018-03-29T13:51:28.857Z,24.30
2018-03-29T13:53:56.354Z,24.80
2018-03-29T13:56:23.864Z,27.10
2018-03-29T13:58:51.320Z,28.70
2018-03-29T14:01:18.801Z,31.20
2018-03-29T14:03:46.286Z,30.90
2018-03-29T14:06:14.546Z,33.90
2018-03-29T14:08:42.009Z,33.90
2018-03-29T14:11:09.519Z,34.20
2018-03-29T14:13:36.978Z,34.80
2018-03-29T14:16:04.497Z,35.70
2018-03-29T14:18:32.742Z,36.60
2018-03-29T14:21:00.202Z,36.50
2018-03-29T14:23:27.698Z,37.10
2018-03-29T14:25:55.935Z,38.40
2018-03-29T14:28:23.442Z,38.40
2018-03-29T14:30:51.663Z,39.70
2018-03-29T14:33:19.163Z,39.70
2018-03-29T14:35:47.404Z,40.00
2018-03-29T14:38:14.903Z,39.80
2018-03-29T14:40:42.387Z,40.50
2018-03-29T14:43:09.941Z,41.50
2018-03-29T14:45:37.414Z,41.90
2018-03-29T14:48:04.933Z,42.10
2018-03-29T14:50:33.173Z,43.80
2018-03-29T14:53:00.692Z,43.80
2018-03-29T14:55:28.215Z,44.80
2018-03-29T14:57:56.483Z,46.80
2018-03-29T15:00:24.731Z,48.90
2018-03-29T15:02:52.228Z,48.20
2018-03-29T15:05:20.506Z,48.50
2018-03-29T15:07:48.757Z,49.70
2018-03-29T15:10:17.102Z,49.70
2018-03-29T15:12:44.553Z,49.70
2018-03-29T15:15:12.028Z,50.20
2018-03-29T15:17:39.494Z,50.60
2018-03-29T15:20:06.997Z,51.80
2018-03-29T15:22:35.480Z,52.60
2018-03-29T15:25:03.843Z,53.60
2018-03-29T15:27:31.308Z,53.50
2018-03-29T15:29:59.561Z,54.40
2018-03-29T15:32:27.774Z,54.50
2018-03-29T15:34:55.304Z,54.50
2018-03-29T15:37:22.823Z,54.70
2018-03-29T15:39:50.280Z,54.50
2018-03-29T15:42:17.763Z,54.50
2018-03-29T15:44:45.247Z,54.50
2018-03-29T15:47:13.498Z,55.20
2018-03-29T15:49:40.971Z,55.20
2018-03-29T15:52:08.454Z,54.50
2018-03-29T15:54:35.929Z,54.50
2018-03-29T15:57:03.450Z,54.00
2018-03-29T15:59:30.930Z,54.00
2018-03-29T16:01:59.166Z,55.10
2018-03-29T16:04:26.661Z,55.10
2018-03-29T16:06:54.162Z,54.60
2018-03-29T16:09:21.644Z,53.90
2018-03-29T16:11:49.135Z,54.10
2018-03-29T16:14:17.410Z,55.30
2018-03-29T16:16:45.655Z,55.40
2018-03-29T16:19:13.142Z,55.40
2018-03-29T16:21:40.601Z,55.30
2018-03-29T16:24:08.878Z,56.20
2018-03-29T16:26:36.354Z,56.30
2018-03-29T16:29:03.864Z,55.60
2018-03-29T16:31:31.422Z,56.10
2018-03-29T16:33:58.880Z,57.00
2018-03-29T16:36:26.397Z,58.50
2018-03-29T16:38:53.850Z,58.70
2018-03-29T16:41:21.339Z,59.10
2018-03-29T16:43:48.851Z,58.10
2018-03-29T16:46:16.363Z,58.90
2018-03-29T16:48:43.898Z,59.60
2018-03-29T16:51:11.388Z,60.80
2018-03-29T16:53:38.928Z,62.10
2018-03-29T16:56:06.382Z,61.40
2018-03-29T16:58:34.647Z,61.70
2018-03-29T17:01:02.154Z,61.70
2018-03-29T17:03:29.647Z,62.40
2018-03-29T17:05:57.171Z,63.10
2018-03-29T17:08:24.775Z,64.00
2018-03-29T17:10:52.244Z,64.00
2018-03-29T17:13:19.731Z,66.30
2018-03-29T17:15:47.278Z,67.40
2018-03-29T17:18:14.743Z,68.10
2018-03-29T17:20:42.328Z,69.10
2018-03-29T17:23:10.580Z,70.90
2018-03-29T17:25:38.070Z,70.80
2018-03-29T17:28:06.315Z,71.90
2018-03-29T17:30:33.828Z,71.90
2018-03-29T17:33:01.334Z,72.20
2018-03-29T17:35:28.854Z,72.60
2018-03-29T17:37:56.340Z,73.40
2018-03-29T17:40:23.850Z,73.90
2018-03-29T17:42:51.328Z,74.40
2018-03-29T17:45:18.889Z,74.70
2018-03-29T17:47:46.355Z,75.10
2018-03-29T17:50:13.873Z,76.40
2018-03-29T17:52:42.105Z,77.10
2018-03-29T17:55:10.352Z,78.30
2018-03-29T17:57:37.877Z,78.30
2018-03-29T18:00:06.121Z,79.90
2018-03-29T18:02:33.648Z,79.80
2018-03-29T18:05:01.147Z,80.10
2018-03-29T18:07:28.620Z,80.90
2018-03-29T18:09:56.131Z,82.20
2018-03-29T18:12:23.635Z,83.90
2018-03-29T18:14:51.855Z,85.10
2018-03-29T18:17:19.349Z,85.10
2018-03-29T18:19:46.832Z,85.90
2018-03-29T18:22:15.098Z,87.40
2018-03-29T18:24:42.559Z,87.40
2018-03-29T18:27:10.081Z,87.60
2018-03-29T18:29:37.601Z,88.50
2018-03-29T18:32:05.866Z,88.70
2018-03-29T18:34:34.111Z,89.40
2018-03-29T18:37:01.638Z,89.40
2018-03-29T18:39:29.113Z,89.80
2018-03-29T18:41:56.580Z,90.00
2018-03-29T18:44:24.073Z,90.10
2018-03-29T18:46:52.299Z,90.60
2018-03-29T18:49:19.827Z,90.60
2018-03-29T18:51:47.286Z,90.70
2018-03-29T18:54:14.778Z,91.00
2018-03-29T18:56:42.286Z,91.20
2018-03-29T18:59:10.564Z,91.30
2018-03-29T19:01:38.092Z,91.30
2018-03-29T19:04:05.659Z,91.50
2018-03-29T19:06:33.935Z,91.50
2018-03-29T19:09:01.463Z,91.40
2018-03-29T19:11:28.967Z,91.60
2018-03-29T19:13:57.249Z,92.40
2018-03-29T19:16:24.739Z,92.40
2018-03-29T19:18:52.246Z,92.50
2018-03-29T19:21:19.850Z,92.50
2018-03-29T19:23:47.240Z,92.70
2018-03-29T19:26:14.739Z,92.80
2018-03-29T19:28:42.971Z,93.40
2018-03-29T19:31:10.497Z,93.40
2018-03-29T19:33:38.032Z,93.50
2018-03-29T19:36:07.254Z,93.90
2018-03-29T19:38:34.750Z,93.90
2018-03-29T19:41:02.969Z,93.90
2018-03-29T19:43:31.245Z,94.20
2018-03-29T19:45:59.496Z,94.30
2018-03-29T19:48:28.486Z,94.30
2018-03-29T19:50:55.978Z,94.30
2018-03-29T19:53:24.278Z,94.70
2018-03-29T19:55:51.790Z,94.70
2018-03-29T19:58:19.301Z,94.90
2018-03-29T20:00:48.102Z,95.20
2018-03-29T20:03:15.619Z,95.20
2018-03-29T20:05:44.116Z,95.10
2018-03-29T20:08:11.624Z,95.10
2018-03-29T20:10:39.101Z,95.20
2018-03-29T20:13:06.589Z,95.50
2018-03-29T20:15:34.088Z,95.60
2018-03-29T20:18:01.598Z,96.20
2018-03-29T20:20:29.126Z,95.90
2018-03-29T20:22:56.592Z,95.90
2018-03-29T20:25:24.081Z,96.00
2018-03-29T20:27:51.550Z,96.00
2018-03-29T20:30:19.222Z,96.10
2018-03-29T20:32:46.696Z,96.00
2018-03-29T20:35:14.206Z,96.10
2018-03-29T20:37:42.502Z,96.40
2018-03-29T20:40:10.013Z,96.40
2018-03-29T20:42:37.471Z,96.80
2018-03-29T20:45:04.970Z,96.80
2018-03-29T20:47:32.472Z,96.90
2018-03-29T20:49:59.978Z,96.90
2018-03-29T20:52:27.489Z,96.90
2018-03-29T20:54:54.984Z,96.90
2018-03-29T20:57:23.315Z,96.80
2018-03-29T20:59:50.793Z,96.80
2018-03-29T21:02:18.304Z,97.10
2018-03-29T21:04:45.777Z,97.00
2018-03-29T21:07:13.315Z,97.20
2018-03-29T21:09:40.812Z,97.30
2018-03-29T21:12:08.349Z,97.20
2018-03-29T21:14:35.854Z,97.30
2018-03-29T21:17:03.345Z,97.40
2018-03-29T21:19:30.862Z,97.30
2018-03-29T21:21:58.350Z,97.60
2018-03-29T21:24:26.671Z,97.70
2018-03-29T21:26:54.162Z,97.70
2018-03-29T21:29:21.651Z,97.60
2018-03-29T21:31:49.157Z,97.60
2018-03-29T21:34:16.717Z,97.70
2018-03-29T21:36:44.179Z,97.80
2018-03-29T21:39:11.694Z,98.10
2018-03-29T21:41:39.201Z,98.50
2018-03-29T21:44:06.710Z,98.60
2018-03-29T21:46:34.193Z,98.60
2018-03-29T21:49:01.667Z,98.70
2018-03-29T21:51:29.191Z,98.80
2018-03-29T21:53:56.710Z,98.80
2018-03-29T21:56:24.208Z,98.80
2018-03-29T21:58:51.702Z,98.80
2018-03-29T22:01:19.185Z,98.80
2018-03-29T22:03:46.672Z,98.80
2018-03-29T22:06:14.172Z,98.90
2018-03-29T22:08:41.667Z,99.00
2018-03-29T22:11:09.961Z,98.90
2018-03-29T22:13:44.033Z,98.90
2018-03-29T22:16:11.506Z,98.90
2018-03-29T22:18:38.998Z,98.90
2018-03-29T22:21:06.476Z,99.20
2018-03-29T22:23:33.978Z,98.90
2018-03-29T22:26:02.220Z,98.70
2018-03-29T22:28:29.726Z,98.90
2018-03-29T22:30:58.015Z,99.30
2018-03-29T22:33:25.481Z,99.30
2018-03-29T22:35:52.956Z,99.20
2018-03-29T22:38:20.431Z,99.30
2018-03-29T22:40:47.933Z,99.60
2018-03-29T22:43:16.207Z,99.30
2018-03-29T22:45:44.512Z,99.50
2018-03-29T22:48:12.514Z,99.50
2018-03-29T22:50:40.935Z,99.50
2018-03-29T22:53:09.146Z,99.60
2018-03-29T22:55:36.641Z,99.60
2018-03-29T22:58:04.089Z,99.70
2018-03-29T23:00:35.547Z,99.80
2018-03-29T23:03:03.034Z,99.90
2018-03-29T23:05:31.289Z,99.90
2018-03-29T23:07:58.756Z,99.90
2018-03-29T23:10:26.240Z,99.90
2018-03-29T23:12:53.717Z,99.80
2018-03-29T23:15:21.202Z,99.90
2018-03-29T23:17:48.719Z,99.80
2018-03-29T23:20:16.214Z,99.80
2018-03-29T23:22:44.158Z,99.80
2018-03-29T23:25:11.617Z,99.90
2018-03-29T23:27:39.144Z,99.90
2018-03-29T23:30:07.363Z,99.90
2018-03-29T23:32:34.864Z,99.90
2018-03-29T23:35:02.389Z,99.90
2018-03-29T23:37:30.582Z,99.90
2018-03-29T23:39:58.038Z,99.90
2018-03-29T23:42:25.547Z,99.90
2018-03-29T23:44:53.005Z,99.90
2018-03-29T23:47:20.542Z,99.90
2018-03-29T23:49:48.799Z,99.90
2018-03-29T23:52:16.269Z,99.90
2018-03-29T23:54:43.762Z,99.90
2018-03-29T23:57:11.242Z,99.90
2018-03-29T23:59:38.826Z,99.80
